sensor_id;sensor_type;location;lat;lon;timestamp;pressure;altitude;pressure_sealevel;temperature;humidity
58471;BME280;44258;51.288;12.068;2023-08-07T00:00:47;99376.09;;;16.31;80.74
58471;BME280;44258;51.288;12.068;2023-08-07T00:03:33;99370.19;;;16.56;79.69
58471;BME280;44258;51.288;12.068;2023-08-07T00:06:21;99372.31;;;16.52;79.50
58471;BME280;44258;51.288;12.068;2023-08-07T00:09:08;99367.19;;;16.49;79.66
58471;BME280;44258;51.288;12.068;2023-08-07T00:11:56;99367.59;;;16.54;78.74
58471;BME280;44258;51.288;12.068;2023-08-07T00:14:43;99368.59;;;16.53;79.20
58471;BME280;44258;51.288;12.068;2023-08-07T00:17:30;99366.31;;;16.58;79.35
58471;BME280;44258;51.288;12.068;2023-08-07T00:20:17;99374.31;;;16.87;78.48
58471;BME280;44258;51.288;12.068;2023-08-07T00:23:04;99371.66;;;16.78;78.17
58471;BME280;44258;51.288;12.068;2023-08-07T00:25:50;99375.03;;;16.52;78.30
58471;BME280;44258;51.288;12.068;2023-08-07T00:28:39;99378.84;;;15.92;80.99
58471;BME280;44258;51.288;12.068;2023-08-07T00:31:25;99374.16;;;15.56;83.29
58471;BME280;44258;51.288;12.068;2023-08-07T00:34:16;99376.56;;;15.59;83.10
58471;BME280;44258;51.288;12.068;2023-08-07T00:37:03;99365.16;;;15.74;82.89
58471;BME280;44258;51.288;12.068;2023-08-07T00:39:50;99369.16;;;15.80;81.76
58471;BME280;44258;51.288;12.068;2023-08-07T00:42:37;99369.16;;;15.70;82.28
58471;BME280;44258;51.288;12.068;2023-08-07T00:45:25;99379.28;;;15.68;81.94
58471;BME280;44258;51.288;12.068;2023-08-07T00:48:13;99380.28;;;15.67;82.21
58471;BME280;44258;51.288;12.068;2023-08-07T00:51:01;99380.56;;;15.64;82.72
58471;BME280;44258;51.288;12.068;2023-08-07T00:53:49;99392.81;;;15.59;83.09
58471;BME280;44258;51.288;12.068;2023-08-07T00:56:36;99383.00;;;15.58;82.57
58471;BME280;44258;51.288;12.068;2023-08-07T00:59:24;99383.75;;;15.19;84.91
58471;BME280;44258;51.288;12.068;2023-08-07T01:02:12;99392.31;;;15.24;84.68
58471;BME280;44258;51.288;12.068;2023-08-07T01:04:59;99391.19;;;15.27;84.02
58471;BME280;44258;51.288;12.068;2023-08-07T01:07:47;99393.94;;;15.37;83.50
58471;BME280;44258;51.288;12.068;2023-08-07T01:10:47;99394.97;;;15.45;83.24
58471;BME280;44258;51.288;12.068;2023-08-07T01:13:45;99392.97;;;15.57;82.64
58471;BME280;44258;51.288;12.068;2023-08-07T01:16:42;99394.25;;;15.63;82.16
58471;BME280;44258;51.288;12.068;2023-08-07T01:19:34;99393.81;;;15.67;82.56
58471;BME280;44258;51.288;12.068;2023-08-07T01:22:25;99400.69;;;15.62;82.04
58471;BME280;44258;51.288;12.068;2023-08-07T01:25:11;99398.38;;;15.67;81.98
58471;BME280;44258;51.288;12.068;2023-08-07T01:28:02;99386.84;;;15.84;81.23
58471;BME280;44258;51.288;12.068;2023-08-07T01:30:54;99398.81;;;15.91;81.09
58471;BME280;44258;51.288;12.068;2023-08-07T01:33:48;99399.81;;;15.90;80.88
58471;BME280;44258;51.288;12.068;2023-08-07T01:36:39;99401.66;;;15.61;82.24
58471;BME280;44258;51.288;12.068;2023-08-07T01:39:28;99401.53;;;15.62;82.17
58471;BME280;44258;51.288;12.068;2023-08-07T01:42:15;99394.66;;;15.78;81.45
58471;BME280;44258;51.288;12.068;2023-08-07T01:45:02;99400.97;;;15.88;80.81
58471;BME280;44258;51.288;12.068;2023-08-07T01:47:52;99399.53;;;15.93;80.24
58471;BME280;44258;51.288;12.068;2023-08-07T01:50:39;99412.25;;;15.64;81.41
58471;BME280;44258;51.288;12.068;2023-08-07T01:53:26;99398.38;;;15.67;81.10
58471;BME280;44258;51.288;12.068;2023-08-07T01:56:14;99403.16;;;15.24;83.01
58471;BME280;44258;51.288;12.068;2023-08-07T01:59:02;99398.50;;;15.36;82.69
58471;BME280;44258;51.288;12.068;2023-08-07T02:01:48;99401.50;;;15.43;82.28
58471;BME280;44258;51.288;12.068;2023-08-07T02:04:35;99397.25;;;15.50;81.83
58471;BME280;44258;51.288;12.068;2023-08-07T02:07:22;99406.34;;;15.49;81.83
58471;BME280;44258;51.288;12.068;2023-08-07T02:10:09;99418.50;;;15.54;81.70
58471;BME280;44258;51.288;12.068;2023-08-07T02:12:58;99404.81;;;15.75;80.64
58471;BME280;44258;51.288;12.068;2023-08-07T02:15:45;99414.94;;;15.73;80.36
58471;BME280;44258;51.288;12.068;2023-08-07T02:18:32;99417.09;;;15.70;80.63
58471;BME280;44258;51.288;12.068;2023-08-07T02:21:19;99415.66;;;15.85;79.67
58471;BME280;44258;51.288;12.068;2023-08-07T02:24:06;99419.09;;;15.68;80.11
58471;BME280;44258;51.288;12.068;2023-08-07T02:26:52;99421.94;;;15.76;79.90
58471;BME280;44258;51.288;12.068;2023-08-07T02:29:41;99414.78;;;15.75;79.76
58471;BME280;44258;51.288;12.068;2023-08-07T02:32:28;99411.50;;;15.81;79.70
58471;BME280;44258;51.288;12.068;2023-08-07T02:35:15;99418.38;;;15.85;80.50
58471;BME280;44258;51.288;12.068;2023-08-07T02:38:01;99415.53;;;15.97;79.23
58471;BME280;44258;51.288;12.068;2023-08-07T02:40:48;99418.06;;;16.08;78.67
58471;BME280;44258;51.288;12.068;2023-08-07T02:43:35;99417.78;;;16.01;79.07
58471;BME280;44258;51.288;12.068;2023-08-07T02:46:23;99425.78;;;15.64;80.92
58471;BME280;44258;51.288;12.068;2023-08-07T02:49:10;99419.78;;;15.50;81.46
58471;BME280;44258;51.288;12.068;2023-08-07T02:51:57;99427.59;;;15.44;82.11
58471;BME280;44258;51.288;12.068;2023-08-07T02:54:44;99416.56;;;15.26;82.72
58471;BME280;44258;51.288;12.068;2023-08-07T02:57:31;99430.88;;;15.38;82.15
58471;BME280;44258;51.288;12.068;2023-08-07T03:00:17;99446.28;;;15.37;82.73
58471;BME280;44258;51.288;12.068;2023-08-07T03:03:06;99436.31;;;15.17;83.45
58471;BME280;44258;51.288;12.068;2023-08-07T03:05:53;99441.38;;;15.31;82.87
58471;BME280;44258;51.288;12.068;2023-08-07T03:08:40;99437.84;;;15.00;85.03
58471;BME280;44258;51.288;12.068;2023-08-07T03:11:28;99445.38;;;14.96;84.67
58471;BME280;44258;51.288;12.068;2023-08-07T03:14:15;99443.44;;;15.08;84.93
58471;BME280;44258;51.288;12.068;2023-08-07T03:17:02;99442.19;;;15.22;83.23
58471;BME280;44258;51.288;12.068;2023-08-07T03:19:50;99442.59;;;15.07;84.35
58471;BME280;44258;51.288;12.068;2023-08-07T03:22:37;99450.47;;;15.20;83.09
58471;BME280;44258;51.288;12.068;2023-08-07T03:25:24;99455.56;;;15.13;83.00
58471;BME280;44258;51.288;12.068;2023-08-07T03:28:10;99463.41;;;14.86;84.49
58471;BME280;44258;51.288;12.068;2023-08-07T03:30:57;99456.25;;;14.75;85.71
58471;BME280;44258;51.288;12.068;2023-08-07T03:33:44;99467.94;;;15.06;83.47
58471;BME280;44258;51.288;12.068;2023-08-07T03:36:32;99469.53;;;14.78;83.71
58471;BME280;44258;51.288;12.068;2023-08-07T03:39:19;99471.59;;;14.65;84.92
58471;BME280;44258;51.288;12.068;2023-08-07T03:42:06;99484.13;;;14.66;84.67
58471;BME280;44258;51.288;12.068;2023-08-07T03:44:53;99480.56;;;14.96;83.03
58471;BME280;44258;51.288;12.068;2023-08-07T03:47:39;99473.34;;;15.06;82.35
58471;BME280;44258;51.288;12.068;2023-08-07T03:50:26;99474.06;;;15.08;81.89
58471;BME280;44258;51.288;12.068;2023-08-07T03:53:17;99465.31;;;15.26;80.97
58471;BME280;44258;51.288;12.068;2023-08-07T03:56:04;99476.38;;;15.13;81.57
58471;BME280;44258;51.288;12.068;2023-08-07T03:58:51;99482.56;;;15.25;80.92
58471;BME280;44258;51.288;12.068;2023-08-07T04:01:37;99486.63;;;15.40;80.45
58471;BME280;44258;51.288;12.068;2023-08-07T04:04:24;99487.50;;;15.50;79.43
58471;BME280;44258;51.288;12.068;2023-08-07T04:07:11;99488.34;;;15.41;79.74
58471;BME280;44258;51.288;12.068;2023-08-07T04:09:59;99491.81;;;15.63;78.75
58471;BME280;44258;51.288;12.068;2023-08-07T04:12:46;99493.13;;;15.78;78.23
58471;BME280;44258;51.288;12.068;2023-08-07T04:15:33;99498.81;;;15.65;78.50
58471;BME280;44258;51.288;12.068;2023-08-07T04:18:19;99505.03;;;15.46;78.79
58471;BME280;44258;51.288;12.068;2023-08-07T04:21:06;99504.91;;;15.48;78.63
58471;BME280;44258;51.288;12.068;2023-08-07T04:23:53;99505.59;;;15.40;79.19
58471;BME280;44258;51.288;12.068;2023-08-07T04:26:42;99510.03;;;15.41;79.07
58471;BME280;44258;51.288;12.068;2023-08-07T04:29:29;99511.00;;;15.40;79.32
58471;BME280;44258;51.288;12.068;2023-08-07T04:32:15;99516.75;;;15.57;78.20
58471;BME280;44258;51.288;12.068;2023-08-07T04:35:03;99516.50;;;15.60;78.27
58471;BME280;44258;51.288;12.068;2023-08-07T04:37:50;99524.69;;;15.39;78.89
58471;BME280;44258;51.288;12.068;2023-08-07T04:40:37;99527.72;;;15.24;79.71
58471;BME280;44258;51.288;12.068;2023-08-07T04:43:25;99521.75;;;15.30;79.25
58471;BME280;44258;51.288;12.068;2023-08-07T04:46:13;99534.59;;;15.28;79.98
58471;BME280;44258;51.288;12.068;2023-08-07T04:49:00;99532.69;;;15.40;79.34
58471;BME280;44258;51.288;12.068;2023-08-07T04:51:47;99529.03;;;15.30;79.38
58471;BME280;44258;51.288;12.068;2023-08-07T04:54:34;99532.03;;;15.27;79.97
58471;BME280;44258;51.288;12.068;2023-08-07T04:57:21;99547.06;;;15.41;78.83
58471;BME280;44258;51.288;12.068;2023-08-07T05:00:10;99541.66;;;15.41;79.10
58471;BME280;44258;51.288;12.068;2023-08-07T05:02:58;99554.56;;;15.58;78.89
58471;BME280;44258;51.288;12.068;2023-08-07T05:05:44;99559.88;;;15.69;78.26
58471;BME280;44258;51.288;12.068;2023-08-07T05:08:31;99556.25;;;15.59;77.72
58471;BME280;44258;51.288;12.068;2023-08-07T05:11:18;99556.09;;;15.51;78.58
58471;BME280;44258;51.288;12.068;2023-08-07T05:14:05;99560.38;;;15.44;78.21
58471;BME280;44258;51.288;12.068;2023-08-07T05:16:54;99550.63;;;15.72;77.35
58471;BME280;44258;51.288;12.068;2023-08-07T05:19:40;99561.69;;;15.49;78.26
58471;BME280;44258;51.288;12.068;2023-08-07T05:22:27;99556.97;;;15.51;78.72
58471;BME280;44258;51.288;12.068;2023-08-07T05:25:14;99560.97;;;15.57;78.35
58471;BME280;44258;51.288;12.068;2023-08-07T05:28:01;99561.13;;;15.56;78.12
58471;BME280;44258;51.288;12.068;2023-08-07T05:30:48;99551.25;;;15.54;78.22
58471;BME280;44258;51.288;12.068;2023-08-07T05:33:36;99564.88;;;15.74;77.49
58471;BME280;44258;51.288;12.068;2023-08-07T05:36:23;99571.06;;;15.45;78.49
58471;BME280;44258;51.288;12.068;2023-08-07T05:39:10;99567.94;;;15.50;78.91
58471;BME280;44258;51.288;12.068;2023-08-07T05:41:57;99560.75;;;15.70;78.27
58471;BME280;44258;51.288;12.068;2023-08-07T05:44:44;99564.00;;;15.73;78.10
58471;BME280;44258;51.288;12.068;2023-08-07T05:47:32;99564.16;;;15.72;78.16
58471;BME280;44258;51.288;12.068;2023-08-07T05:50:20;99561.25;;;15.54;78.83
58471;BME280;44258;51.288;12.068;2023-08-07T05:53:07;99562.72;;;15.68;78.28
58471;BME280;44258;51.288;12.068;2023-08-07T05:55:54;99571.69;;;15.59;77.74
58471;BME280;44258;51.288;12.068;2023-08-07T05:58:41;99570.69;;;15.60;77.55
58471;BME280;44258;51.288;12.068;2023-08-07T06:01:28;99566.06;;;15.91;76.43
58471;BME280;44258;51.288;12.068;2023-08-07T06:04:16;99579.50;;;16.02;75.93
58471;BME280;44258;51.288;12.068;2023-08-07T06:07:05;99588.50;;;16.03;75.89
58471;BME280;44258;51.288;12.068;2023-08-07T06:09:52;99580.31;;;15.83;76.67
58471;BME280;44258;51.288;12.068;2023-08-07T06:12:39;99582.31;;;15.81;76.78
58471;BME280;44258;51.288;12.068;2023-08-07T06:15:26;99585.19;;;15.89;76.28
58471;BME280;44258;51.288;12.068;2023-08-07T06:18:13;99591.38;;;16.11;76.51
58471;BME280;44258;51.288;12.068;2023-08-07T06:21:00;99595.00;;;16.50;74.70
58471;BME280;44258;51.288;12.068;2023-08-07T06:23:48;99601.94;;;16.24;74.89
58471;BME280;44258;51.288;12.068;2023-08-07T06:26:35;99603.09;;;16.21;75.25
58471;BME280;44258;51.288;12.068;2023-08-07T06:29:22;99591.28;;;16.32;75.18
58471;BME280;44258;51.288;12.068;2023-08-07T06:32:09;99606.69;;;16.51;74.59
58471;BME280;44258;51.288;12.068;2023-08-07T06:34:56;99615.84;;;16.50;74.48
58471;BME280;44258;51.288;12.068;2023-08-07T06:37:43;99613.59;;;16.55;73.98
58471;BME280;44258;51.288;12.068;2023-08-07T06:40:35;99604.16;;;16.59;73.72
58471;BME280;44258;51.288;12.068;2023-08-07T06:43:22;99617.72;;;16.79;73.37
58471;BME280;44258;51.288;12.068;2023-08-07T06:46:09;99612.84;;;16.63;74.13
58471;BME280;44258;51.288;12.068;2023-08-07T06:48:57;99613.28;;;16.48;73.40
58471;BME280;44258;51.288;12.068;2023-08-07T06:51:43;99617.31;;;16.64;72.62
58471;BME280;44258;51.288;12.068;2023-08-07T06:54:30;99617.56;;;16.80;72.56
58471;BME280;44258;51.288;12.068;2023-08-07T06:57:18;99626.56;;;16.81;72.15
58471;BME280;44258;51.288;12.068;2023-08-07T07:00:06;99629.84;;;16.65;72.97
58471;BME280;44258;51.288;12.068;2023-08-07T07:02:53;99627.59;;;16.70;72.67
58471;BME280;44258;51.288;12.068;2023-08-07T07:05:40;99634.00;;;16.79;72.90
58471;BME280;44258;51.288;12.068;2023-08-07T07:08:28;99629.13;;;16.63;73.03
58471;BME280;44258;51.288;12.068;2023-08-07T07:11:15;99633.13;;;16.59;72.26
58471;BME280;44258;51.288;12.068;2023-08-07T07:14:03;99635.44;;;16.63;72.28
58471;BME280;44258;51.288;12.068;2023-08-07T07:16:50;99651.84;;;16.81;71.30
58471;BME280;44258;51.288;12.068;2023-08-07T07:19:37;99652.88;;;16.90;71.38
58471;BME280;44258;51.288;12.068;2023-08-07T07:22:24;99652.00;;;17.09;70.58
58471;BME280;44258;51.288;12.068;2023-08-07T07:25:11;99668.28;;;17.09;70.73
58471;BME280;44258;51.288;12.068;2023-08-07T07:27:58;99662.59;;;17.02;70.83
58471;BME280;44258;51.288;12.068;2023-08-07T07:30:46;99667.84;;;17.13;70.48
58471;BME280;44258;51.288;12.068;2023-08-07T07:33:33;99660.56;;;17.24;70.34
58471;BME280;44258;51.288;12.068;2023-08-07T07:36:21;99667.28;;;17.10;70.54
58471;BME280;44258;51.288;12.068;2023-08-07T07:39:08;99669.00;;;17.11;70.20
58471;BME280;44258;51.288;12.068;2023-08-07T07:41:55;99675.72;;;17.07;70.41
58471;BME280;44258;51.288;12.068;2023-08-07T07:44:42;99670.84;;;17.49;69.57
58471;BME280;44258;51.288;12.068;2023-08-07T07:47:30;99670.59;;;17.33;69.12
58471;BME280;44258;51.288;12.068;2023-08-07T07:50:17;99674.56;;;17.19;70.02
58471;BME280;44258;51.288;12.068;2023-08-07T07:53:04;99679.59;;;17.24;69.36
58471;BME280;44258;51.288;12.068;2023-08-07T07:55:51;99666.69;;;17.83;68.03
58471;BME280;44258;51.288;12.068;2023-08-07T07:58:38;99678.34;;;18.03;67.91
58471;BME280;44258;51.288;12.068;2023-08-07T08:01:26;99676.13;;;17.88;68.09
58471;BME280;44258;51.288;12.068;2023-08-07T08:04:15;99680.19;;;17.74;67.42
58471;BME280;44258;51.288;12.068;2023-08-07T08:07:02;99683.59;;;17.86;67.30
58471;BME280;44258;51.288;12.068;2023-08-07T08:09:49;99682.53;;;17.97;67.88
58471;BME280;44258;51.288;12.068;2023-08-07T08:12:36;99695.50;;;17.85;67.92
58471;BME280;44258;51.288;12.068;2023-08-07T08:15:23;99704.28;;;17.97;67.69
58471;BME280;44258;51.288;12.068;2023-08-07T08:18:10;99692.56;;;17.97;67.51
58471;BME280;44258;51.288;12.068;2023-08-07T08:20:58;99691.94;;;18.40;66.80
58471;BME280;44258;51.288;12.068;2023-08-07T08:23:45;99702.94;;;18.21;66.67
58471;BME280;44258;51.288;12.068;2023-08-07T08:26:32;99707.53;;;18.20;66.89
58471;BME280;44258;51.288;12.068;2023-08-07T08:29:19;99702.47;;;18.25;66.86
58471;BME280;44258;51.288;12.068;2023-08-07T08:32:06;99698.31;;;18.31;66.23
58471;BME280;44258;51.288;12.068;2023-08-07T08:34:53;99705.06;;;17.89;66.65
58471;BME280;44258;51.288;12.068;2023-08-07T08:37:42;99706.06;;;17.88;67.67
58471;BME280;44258;51.288;12.068;2023-08-07T08:40:29;99705.50;;;17.75;68.34
58471;BME280;44258;51.288;12.068;2023-08-07T08:43:17;99709.09;;;17.85;67.62
58471;BME280;44258;51.288;12.068;2023-08-07T08:46:05;99701.47;;;17.89;67.52
58471;BME280;44258;51.288;12.068;2023-08-07T08:48:55;99718.22;;;17.94;67.35
58471;BME280;44258;51.288;12.068;2023-08-07T08:51:43;99714.25;;;17.79;68.05
58471;BME280;44258;51.288;12.068;2023-08-07T08:54:32;99728.53;;;17.81;67.86
58471;BME280;44258;51.288;12.068;2023-08-07T08:57:20;99724.09;;;17.89;67.75
58471;BME280;44258;51.288;12.068;2023-08-07T09:00:08;99736.50;;;18.02;67.92
58471;BME280;44258;51.288;12.068;2023-08-07T09:03:03;99722.38;;;18.26;67.46
58471;BME280;44258;51.288;12.068;2023-08-07T09:05:52;99740.38;;;18.09;67.65
58471;BME280;44258;51.288;12.068;2023-08-07T09:08:41;99724.03;;;17.99;67.79
58471;BME280;44258;51.288;12.068;2023-08-07T09:11:31;99727.53;;;18.57;66.44
58471;BME280;44258;51.288;12.068;2023-08-07T09:14:22;99728.59;;;18.91;65.34
58471;BME280;44258;51.288;12.068;2023-08-07T09:17:13;99733.97;;;19.19;64.85
58471;BME280;44258;51.288;12.068;2023-08-07T09:20:00;99730.03;;;18.96;65.28
58471;BME280;44258;51.288;12.068;2023-08-07T09:22:49;99732.19;;;19.10;64.61
58471;BME280;44258;51.288;12.068;2023-08-07T09:25:35;99735.47;;;18.96;64.75
58471;BME280;44258;51.288;12.068;2023-08-07T09:28:24;99741.50;;;19.25;64.48
58471;BME280;44258;51.288;12.068;2023-08-07T09:31:14;99740.91;;;19.13;64.19
58471;BME280;44258;51.288;12.068;2023-08-07T09:34:02;99743.88;;;19.20;64.27
58471;BME280;44258;51.288;12.068;2023-08-07T09:36:51;99733.59;;;19.14;64.69
58471;BME280;44258;51.288;12.068;2023-08-07T09:39:40;99739.06;;;19.14;64.27
58471;BME280;44258;51.288;12.068;2023-08-07T09:42:31;99733.88;;;19.29;65.23
58471;BME280;44258;51.288;12.068;2023-08-07T09:45:21;99744.63;;;19.48;64.29
58471;BME280;44258;51.288;12.068;2023-08-07T09:48:08;99751.84;;;19.58;63.24
58471;BME280;44258;51.288;12.068;2023-08-07T09:51:00;99756.88;;;19.08;63.82
58471;BME280;44258;51.288;12.068;2023-08-07T09:53:47;99763.03;;;18.83;64.24
58471;BME280;44258;51.288;12.068;2023-08-07T09:56:35;99768.00;;;18.69;65.44
58471;BME280;44258;51.288;12.068;2023-08-07T09:59:22;99773.59;;;18.68;65.50
58471;BME280;44258;51.288;12.068;2023-08-07T10:02:11;99770.22;;;18.84;66.96
58471;BME280;44258;51.288;12.068;2023-08-07T10:04:58;99773.75;;;18.94;67.16
58471;BME280;44258;51.288;12.068;2023-08-07T10:07:45;99770.56;;;19.17;66.77
58471;BME280;44258;51.288;12.068;2023-08-07T10:10:33;99763.31;;;19.43;66.86
58471;BME280;44258;51.288;12.068;2023-08-07T10:13:21;99762.31;;;19.44;66.34
58471;BME280;44258;51.288;12.068;2023-08-07T10:16:09;99761.97;;;19.65;66.29
58471;BME280;44258;51.288;12.068;2023-08-07T10:18:58;99771.44;;;19.35;65.87
58471;BME280;44258;51.288;12.068;2023-08-07T10:21:46;99767.56;;;19.20;64.99
58471;BME280;44258;51.288;12.068;2023-08-07T10:24:36;99767.88;;;18.89;66.66
58471;BME280;44258;51.288;12.068;2023-08-07T10:27:26;99759.56;;;18.90;66.70
58471;BME280;44258;51.288;12.068;2023-08-07T10:30:15;99767.38;;;19.39;64.92
58471;BME280;44258;51.288;12.068;2023-08-07T10:33:04;99764.03;;;19.27;65.71
58471;BME280;44258;51.288;12.068;2023-08-07T10:35:53;99759.66;;;19.52;64.08
58471;BME280;44258;51.288;12.068;2023-08-07T10:38:40;99757.25;;;19.31;64.13
58471;BME280;44258;51.288;12.068;2023-08-07T10:41:38;99754.13;;;19.44;62.40
58471;BME280;44258;51.288;12.068;2023-08-07T10:44:29;99757.94;;;19.33;62.37
58471;BME280;44258;51.288;12.068;2023-08-07T10:47:32;99746.41;;;19.40;63.28
58471;BME280;44258;51.288;12.068;2023-08-07T10:50:27;99763.28;;;19.61;64.59
58471;BME280;44258;51.288;12.068;2023-08-07T10:53:20;99757.44;;;19.74;63.22
58471;BME280;44258;51.288;12.068;2023-08-07T10:56:15;99753.19;;;19.98;63.19
58471;BME280;44258;51.288;12.068;2023-08-07T10:59:07;99741.91;;;20.01;61.72
58471;BME280;44258;51.288;12.068;2023-08-07T11:01:55;99750.00;;;19.84;60.68
58471;BME280;44258;51.288;12.068;2023-08-07T11:04:42;99754.97;;;20.15;60.57
58471;BME280;44258;51.288;12.068;2023-08-07T11:07:30;99766.47;;;20.61;59.90
58471;BME280;44258;51.288;12.068;2023-08-07T11:10:18;99758.97;;;20.29;60.02
58471;BME280;44258;51.288;12.068;2023-08-07T11:13:06;99773.72;;;19.66;64.39
58471;BME280;44258;51.288;12.068;2023-08-07T11:15:53;99771.66;;;19.42;65.95
58471;BME280;44258;51.288;12.068;2023-08-07T11:18:41;99758.50;;;19.19;68.12
58471;BME280;44258;51.288;12.068;2023-08-07T11:21:29;99759.69;;;19.17;69.03
58471;BME280;44258;51.288;12.068;2023-08-07T11:24:17;99749.91;;;19.50;67.81
58471;BME280;44258;51.288;12.068;2023-08-07T11:27:07;99754.59;;;19.40;66.71
58471;BME280;44258;51.288;12.068;2023-08-07T11:29:55;99753.31;;;19.52;66.79
58471;BME280;44258;51.288;12.068;2023-08-07T11:32:42;99760.22;;;19.82;66.27
58471;BME280;44258;51.288;12.068;2023-08-07T11:35:29;99758.00;;;20.04;65.92
58471;BME280;44258;51.288;12.068;2023-08-07T11:38:29;99765.63;;;20.00;65.51
58471;BME280;44258;51.288;12.068;2023-08-07T11:41:18;99765.03;;;20.14;65.54
58471;BME280;44258;51.288;12.068;2023-08-07T11:44:07;99759.72;;;20.13;64.52
58471;BME280;44258;51.288;12.068;2023-08-07T11:46:55;99769.19;;;19.74;63.56
58471;BME280;44258;51.288;12.068;2023-08-07T11:49:42;99754.72;;;19.74;63.76
58471;BME280;44258;51.288;12.068;2023-08-07T11:52:28;99754.50;;;19.49;63.33
58471;BME280;44258;51.288;12.068;2023-08-07T11:55:15;99768.16;;;19.31;63.98
58471;BME280;44258;51.288;12.068;2023-08-07T11:58:03;99770.50;;;19.08;66.73
58471;BME280;44258;51.288;12.068;2023-08-07T12:00:52;99762.25;;;18.72;69.25
58471;BME280;44258;51.288;12.068;2023-08-07T12:03:42;99771.69;;;18.78;69.50
58471;BME280;44258;51.288;12.068;2023-08-07T12:06:29;99755.06;;;18.99;70.88
58471;BME280;44258;51.288;12.068;2023-08-07T12:09:16;99757.66;;;19.19;72.15
58471;BME280;44258;51.288;12.068;2023-08-07T12:12:04;99760.53;;;19.35;70.05
58471;BME280;44258;51.288;12.068;2023-08-07T12:14:53;99756.16;;;19.06;70.70
58471;BME280;44258;51.288;12.068;2023-08-07T12:17:42;99768.56;;;18.91;69.86
58471;BME280;44258;51.288;12.068;2023-08-07T12:20:29;99767.44;;;18.38;69.34
58471;BME280;44258;51.288;12.068;2023-08-07T12:23:16;99788.97;;;18.31;70.39
58471;BME280;44258;51.288;12.068;2023-08-07T12:26:03;99784.09;;;17.88;72.69
58471;BME280;44258;51.288;12.068;2023-08-07T12:28:52;99800.09;;;17.81;73.20
58471;BME280;44258;51.288;12.068;2023-08-07T12:31:39;99790.34;;;18.08;71.21
58471;BME280;44258;51.288;12.068;2023-08-07T12:34:28;99795.44;;;18.30;71.02
58471;BME280;44258;51.288;12.068;2023-08-07T12:37:14;99795.97;;;18.34;69.66
58471;BME280;44258;51.288;12.068;2023-08-07T12:40:02;99813.00;;;18.73;68.65
58471;BME280;44258;51.288;12.068;2023-08-07T12:42:51;99808.72;;;18.71;69.90
58471;BME280;44258;51.288;12.068;2023-08-07T12:45:38;99815.25;;;18.78;69.09
58471;BME280;44258;51.288;12.068;2023-08-07T12:48:25;99811.22;;;19.10;69.11
58471;BME280;44258;51.288;12.068;2023-08-07T12:51:16;99802.75;;;18.58;67.23
58471;BME280;44258;51.288;12.068;2023-08-07T12:54:03;99826.50;;;18.65;70.66
58471;BME280;44258;51.288;12.068;2023-08-07T12:56:50;99830.84;;;18.58;69.63
58471;BME280;44258;51.288;12.068;2023-08-07T12:59:38;99828.00;;;18.50;68.95
58471;BME280;44258;51.288;12.068;2023-08-07T13:02:25;99822.94;;;18.27;69.22
58471;BME280;44258;51.288;12.068;2023-08-07T13:05:11;99825.16;;;18.14;70.16
58471;BME280;44258;51.288;12.068;2023-08-07T13:08:01;99813.66;;;18.20;69.09
58471;BME280;44258;51.288;12.068;2023-08-07T13:10:48;99806.94;;;18.52;68.58
58471;BME280;44258;51.288;12.068;2023-08-07T13:13:34;99813.97;;;18.54;68.26
58471;BME280;44258;51.288;12.068;2023-08-07T13:16:24;99817.84;;;18.80;66.32
58471;BME280;44258;51.288;12.068;2023-08-07T13:19:11;99816.72;;;18.72;66.80
58471;BME280;44258;51.288;12.068;2023-08-07T13:21:58;99816.53;;;18.84;66.37
58471;BME280;44258;51.288;12.068;2023-08-07T13:24:46;99817.53;;;19.10;64.36
58471;BME280;44258;51.288;12.068;2023-08-07T13:27:34;99824.53;;;19.13;63.27
58471;BME280;44258;51.288;12.068;2023-08-07T13:30:21;99831.13;;;18.83;63.20
58471;BME280;44258;51.288;12.068;2023-08-07T13:33:08;99837.97;;;18.69;62.96
58471;BME280;44258;51.288;12.068;2023-08-07T13:35:56;99829.03;;;18.49;63.57
58471;BME280;44258;51.288;12.068;2023-08-07T13:38:43;99834.97;;;18.62;62.79
58471;BME280;44258;51.288;12.068;2023-08-07T13:41:31;99843.13;;;19.00;62.48
58471;BME280;44258;51.288;12.068;2023-08-07T13:44:18;99847.19;;;18.86;60.01
58471;BME280;44258;51.288;12.068;2023-08-07T13:47:05;99857.94;;;18.87;61.50
58471;BME280;44258;51.288;12.068;2023-08-07T13:49:52;99854.13;;;19.08;61.52
58471;BME280;44258;51.288;12.068;2023-08-07T13:52:40;99857.63;;;18.63;62.98
58471;BME280;44258;51.288;12.068;2023-08-07T13:55:27;99858.09;;;18.48;61.72
58471;BME280;44258;51.288;12.068;2023-08-07T13:58:15;99871.88;;;18.47;62.87
58471;BME280;44258;51.288;12.068;2023-08-07T14:01:02;99873.81;;;18.64;62.47
58471;BME280;44258;51.288;12.068;2023-08-07T14:03:53;99876.31;;;18.48;62.64
58471;BME280;44258;51.288;12.068;2023-08-07T14:06:40;99875.13;;;18.88;61.75
58471;BME280;44258;51.288;12.068;2023-08-07T14:09:29;99877.06;;;19.05;62.07
58471;BME280;44258;51.288;12.068;2023-08-07T14:12:19;99871.88;;;19.12;61.77
58471;BME280;44258;51.288;12.068;2023-08-07T14:15:07;99872.50;;;19.06;63.04
58471;BME280;44258;51.288;12.068;2023-08-07T14:17:54;99885.88;;;18.52;63.93
58471;BME280;44258;51.288;12.068;2023-08-07T14:20:42;99893.25;;;18.79;63.69
58471;BME280;44258;51.288;12.068;2023-08-07T14:23:29;99896.94;;;18.88;63.28
58471;BME280;44258;51.288;12.068;2023-08-07T14:26:16;99896.50;;;18.55;63.98
58471;BME280;44258;51.288;12.068;2023-08-07T14:29:04;99907.75;;;18.32;64.58
58471;BME280;44258;51.288;12.068;2023-08-07T14:31:52;99903.28;;;18.31;64.94
58471;BME280;44258;51.288;12.068;2023-08-07T14:34:39;99920.34;;;18.33;63.37
58471;BME280;44258;51.288;12.068;2023-08-07T14:37:26;99936.41;;;18.17;61.12